createdAt,value
2023-04-08T00:00:17.938Z,19.13
2023-04-08T00:02:44.584Z,19.60
2023-04-08T00:05:11.700Z,12.03
2023-04-08T00:07:38.817Z,18.33
2023-04-08T00:10:06.718Z,13.20
2023-04-08T00:12:33.518Z,12.37
2023-04-08T00:15:00.272Z,14.10
2023-04-08T00:17:27.243Z,16.30
2023-04-08T00:19:53.894Z,10.00
2023-04-08T00:22:20.475Z,19.50
2023-04-08T00:24:47.204Z,14.00
2023-04-08T00:27:13.792Z,18.10
2023-04-08T00:29:40.551Z,14.90
2023-04-08T00:32:07.410Z,17.10
2023-04-08T00:34:33.968Z,11.70
2023-04-08T00:37:01.296Z,12.10
2023-04-08T00:39:27.909Z,21.40
2023-04-08T00:41:54.483Z,11.50
2023-04-08T00:44:21.383Z,21.13
2023-04-08T00:46:48.672Z,18.23
2023-04-08T00:49:15.693Z,15.13
2023-04-08T00:51:42.288Z,19.03
2023-04-08T00:54:08.831Z,11.30
2023-04-08T00:56:35.981Z,16.30
2023-04-08T00:59:03.243Z,12.20
2023-04-08T01:01:54.297Z,12.37
2023-04-08T01:04:35.789Z,20.60
2023-04-08T01:07:15.727Z,21.37
2023-04-08T01:09:46.867Z,13.40
2023-04-08T01:12:18.616Z,12.67
2023-04-08T01:14:47.009Z,16.57
2023-04-08T01:17:13.790Z,17.40
2023-04-08T01:19:42.377Z,13.47
2023-04-08T01:22:21.431Z,15.00
2023-04-08T01:24:50.507Z,15.20
2023-04-08T01:27:17.424Z,15.77
2023-04-08T01:29:44.448Z,12.03
2023-04-08T01:32:11.817Z,14.43
2023-04-08T01:34:38.621Z,16.57
2023-04-08T01:37:06.511Z,21.20
2023-04-08T01:39:33.905Z,14.60
2023-04-08T01:42:00.523Z,16.97
2023-04-08T01:44:27.687Z,14.37
2023-04-08T01:46:55.334Z,19.57
2023-04-08T01:49:22.775Z,20.37
2023-04-08T01:51:49.541Z,15.83
2023-04-08T01:54:16.277Z,16.50
2023-04-08T01:56:46.298Z,18.80
2023-04-08T01:59:14.633Z,19.77
2023-04-08T02:01:42.323Z,14.03
2023-04-08T02:04:09.192Z,22.37
2023-04-08T02:06:36.199Z,24.63
2023-04-08T02:09:03.310Z,17.13
2023-04-08T02:11:30.022Z,18.87
2023-04-08T02:13:57.008Z,18.17
2023-04-08T02:16:32.378Z,21.57
2023-04-08T02:19:02.752Z,18.00
2023-04-08T02:21:39.030Z,15.80
2023-04-08T02:24:08.228Z,22.60
2023-04-08T02:26:36.482Z,15.90
2023-04-08T02:29:04.701Z,22.30
2023-04-08T02:31:33.896Z,12.60
2023-04-08T02:34:01.070Z,18.93
2023-04-08T02:36:27.785Z,24.67
2023-04-08T02:38:54.394Z,13.60
2023-04-08T02:41:21.337Z,14.90
2023-04-08T02:43:48.054Z,14.20
2023-04-08T02:46:14.823Z,14.23
2023-04-08T02:48:41.546Z,20.40
2023-04-08T02:51:08.415Z,17.03
2023-04-08T02:53:34.946Z,22.50
2023-04-08T02:56:01.467Z,18.50
2023-04-08T02:58:28.033Z,13.03
2023-04-08T03:00:54.554Z,20.80
2023-04-08T03:03:27.664Z,20.63
2023-04-08T03:05:54.413Z,24.67
2023-04-08T03:08:20.972Z,21.53
2023-04-08T03:10:47.674Z,18.93
2023-04-08T03:13:14.248Z,22.20
2023-04-08T03:15:40.895Z,17.30
2023-04-08T03:18:07.608Z,26.53
2023-04-08T03:20:34.337Z,20.83
2023-04-08T03:23:00.960Z,20.03
2023-04-08T03:25:29.500Z,13.73
2023-04-08T03:27:56.313Z,17.93
2023-04-08T03:30:23.126Z,21.60
2023-04-08T03:32:49.729Z,18.20
2023-04-08T03:35:16.271Z,22.33
2023-04-08T03:37:42.859Z,21.77
2023-04-08T03:40:10.016Z,14.53
2023-04-08T03:42:36.536Z,21.23
2023-04-08T03:45:03.673Z,15.07
2023-04-08T03:47:30.929Z,16.10
2023-04-08T03:49:57.453Z,12.70
2023-04-08T03:52:25.255Z,15.37
2023-04-08T03:54:51.813Z,13.57
2023-04-08T03:57:18.687Z,19.50
2023-04-08T03:59:45.176Z,18.67
2023-04-08T04:02:11.757Z,15.90
2023-04-08T04:04:38.440Z,23.53
2023-04-08T04:07:05.106Z,15.53
2023-04-08T04:09:31.684Z,21.83
2023-04-08T04:11:58.292Z,15.83
2023-04-08T04:14:24.764Z,12.57
2023-04-08T04:16:51.430Z,16.47
2023-04-08T04:19:18.435Z,17.43
2023-04-08T04:21:44.977Z,18.70
2023-04-08T04:24:11.423Z,25.70
2023-04-08T04:26:38.021Z,22.23
2023-04-08T04:29:04.515Z,18.90
2023-04-08T04:31:31.196Z,16.53
2023-04-08T04:33:57.785Z,20.13
2023-04-08T04:36:24.279Z,18.03
2023-04-08T04:38:51.856Z,24.60
2023-04-08T04:41:18.631Z,20.47
2023-04-08T04:43:45.175Z,22.10
2023-04-08T04:46:11.716Z,28.43
2023-04-08T04:48:38.322Z,23.17
2023-04-08T04:51:05.038Z,23.23
2023-04-08T04:53:31.792Z,16.97
2023-04-08T04:55:58.839Z,21.63
2023-04-08T04:58:25.577Z,28.60
2023-04-08T05:00:52.066Z,19.50
2023-04-08T05:03:18.836Z,23.67
2023-04-08T05:05:45.575Z,25.63
2023-04-08T05:08:12.236Z,26.30
2023-04-08T05:10:40.995Z,35.03
2023-04-08T05:13:07.563Z,23.93
2023-04-08T05:15:34.255Z,24.23
2023-04-08T05:18:00.773Z,28.10
2023-04-08T05:20:27.505Z,23.27
2023-04-08T05:22:54.073Z,23.23
2023-04-08T05:25:20.613Z,26.83
2023-04-08T05:27:47.181Z,29.40
2023-04-08T05:30:14.375Z,23.30
2023-04-08T05:32:41.429Z,29.07
2023-04-08T05:35:09.706Z,33.87
2023-04-08T05:37:36.400Z,23.70
2023-04-08T05:40:03.199Z,28.87
2023-04-08T05:42:29.794Z,24.17
2023-04-08T05:44:56.528Z,29.50
2023-04-08T05:47:23.176Z,23.00
2023-04-08T05:49:51.257Z,25.93
2023-04-08T05:52:17.907Z,27.60
2023-04-08T05:54:44.621Z,26.27
2023-04-08T05:57:11.576Z,24.67
2023-04-08T05:59:38.140Z,27.00
2023-04-08T06:02:04.973Z,22.60
2023-04-08T06:04:31.613Z,21.33
2023-04-08T06:06:59.968Z,49.07
2023-04-08T06:09:26.624Z,30.10
2023-04-08T06:11:53.184Z,30.97
2023-04-08T06:14:20.896Z,29.60
2023-04-08T06:16:47.539Z,62.63
2023-04-08T06:19:14.160Z,69.13
2023-04-08T06:21:40.691Z,25.00
2023-04-08T06:24:07.227Z,30.57
2023-04-08T06:26:33.714Z,50.87
2023-04-08T06:29:02.052Z,32.37
2023-04-08T06:31:28.767Z,50.33
2023-04-08T06:33:55.958Z,35.50
2023-04-08T06:36:22.452Z,37.33
2023-04-08T06:38:49.270Z,29.97
2023-04-08T06:41:16.092Z,34.70
2023-04-08T06:43:42.706Z,35.90
2023-04-08T06:46:09.365Z,26.13
2023-04-08T06:48:37.757Z,34.57
2023-04-08T06:51:04.778Z,39.13
2023-04-08T06:53:32.941Z,31.93
2023-04-08T06:56:00.211Z,26.30
2023-04-08T06:58:27.422Z,23.03
2023-04-08T07:00:55.832Z,23.83
2023-04-08T07:03:23.289Z,29.73
2023-04-08T07:05:49.956Z,27.50
2023-04-08T07:08:16.440Z,55.33
2023-04-08T07:10:43.414Z,73.10
2023-04-08T07:13:10.637Z,80.23
2023-04-08T07:15:37.447Z,77.03
2023-04-08T07:18:04.823Z,56.70
2023-04-08T07:20:32.296Z,45.40
2023-04-08T07:22:59.019Z,61.17
2023-04-08T07:25:25.700Z,38.53
2023-04-08T07:27:52.949Z,28.53
2023-04-08T07:30:20.030Z,32.90
2023-04-08T07:32:46.880Z,32.17
2023-04-08T07:35:13.660Z,48.63
2023-04-08T07:37:40.215Z,32.13
2023-04-08T07:40:09.296Z,57.70
2023-04-08T07:42:35.869Z,70.00
2023-04-08T07:45:02.678Z,42.27
2023-04-08T07:47:29.299Z,29.20
2023-04-08T07:49:55.821Z,24.07
2023-04-08T07:52:22.350Z,25.70
2023-04-08T07:54:48.874Z,23.87
2023-04-08T07:57:15.568Z,27.37
2023-04-08T07:59:42.413Z,21.37
2023-04-08T08:02:08.957Z,28.43
2023-04-08T08:04:35.694Z,25.87
2023-04-08T08:07:02.398Z,26.17
2023-04-08T08:09:31.024Z,24.73
2023-04-08T08:11:58.737Z,33.13
2023-04-08T08:14:26.811Z,34.77
2023-04-08T08:16:54.460Z,31.93
2023-04-08T08:19:21.427Z,31.00
2023-04-08T08:21:48.357Z,31.40
2023-04-08T08:24:14.986Z,32.87
2023-04-08T08:26:41.907Z,27.30
2023-04-08T08:29:08.988Z,34.30
2023-04-08T08:31:35.874Z,38.17
2023-04-08T08:34:03.005Z,28.43
2023-04-08T08:36:29.706Z,23.60
2023-04-08T08:38:56.498Z,32.93
2023-04-08T08:41:23.124Z,26.83
2023-04-08T08:43:50.026Z,29.00
2023-04-08T08:46:18.153Z,32.03
2023-04-08T08:48:45.608Z,28.43
2023-04-08T08:51:13.393Z,26.20
2023-04-08T08:53:45.318Z,32.33
2023-04-08T08:58:41.997Z,24.40
2023-04-08T09:01:34.393Z,41.43
2023-04-08T09:04:20.132Z,35.73
2023-04-08T09:06:48.934Z,36.97
2023-04-08T09:09:15.761Z,25.90
2023-04-08T09:11:44.475Z,24.47
2023-04-08T09:14:25.092Z,34.97
2023-04-08T09:16:52.995Z,29.50
2023-04-08T09:19:19.854Z,31.53
2023-04-08T09:21:47.670Z,25.70
2023-04-08T09:24:30.623Z,37.10
2023-04-08T09:26:57.199Z,33.97
2023-04-08T09:29:26.336Z,30.60
2023-04-08T09:31:59.161Z,29.83
2023-04-08T09:34:27.584Z,30.17
2023-04-08T09:36:55.010Z,34.57
2023-04-08T09:39:22.163Z,33.27
2023-04-08T09:41:50.754Z,49.13
2023-04-08T09:44:19.844Z,28.83
2023-04-08T09:46:49.465Z,31.50
2023-04-08T09:49:27.241Z,34.30
2023-04-08T09:52:08.475Z,29.70
2023-04-08T09:55:06.165Z,34.93
2023-04-08T09:57:46.850Z,25.10
2023-04-08T10:00:15.250Z,29.77
2023-04-08T10:03:05.600Z,31.60
2023-04-08T10:05:33.569Z,24.63
2023-04-08T10:08:00.308Z,19.90
2023-04-08T10:10:27.503Z,26.50
2023-04-08T10:12:54.627Z,27.77
2023-04-08T10:15:27.402Z,31.27
2023-04-08T10:17:56.104Z,27.23
2023-04-08T10:20:36.113Z,28.63
2023-04-08T10:23:04.273Z,26.67
2023-04-08T10:25:36.730Z,24.63
2023-04-08T10:28:12.384Z,25.90
2023-04-08T10:30:43.231Z,24.20
2023-04-08T10:33:18.119Z,24.93
2023-04-08T10:35:48.740Z,27.80
2023-04-08T10:38:16.346Z,26.47
2023-04-08T10:40:44.455Z,26.07
2023-04-08T10:43:12.830Z,23.63
2023-04-08T10:45:40.792Z,22.93
2023-04-08T10:48:18.446Z,26.67
2023-04-08T10:50:53.327Z,31.00
2023-04-08T10:53:25.676Z,36.90
2023-04-08T10:55:52.792Z,31.70
2023-04-08T10:58:19.544Z,38.90
2023-04-08T11:00:46.470Z,29.13
2023-04-08T11:03:15.107Z,31.73
2023-04-08T11:05:42.495Z,28.90
2023-04-08T11:08:09.196Z,24.40
2023-04-08T11:10:39.164Z,27.50
2023-04-08T11:13:09.924Z,21.87
2023-04-08T11:15:37.057Z,30.17
2023-04-08T11:18:06.828Z,26.17
2023-04-08T11:20:37.517Z,25.77
2023-04-08T11:23:04.026Z,28.27
2023-04-08T11:25:30.789Z,34.23
2023-04-08T11:27:57.368Z,30.47
2023-04-08T11:30:24.163Z,32.77
2023-04-08T11:32:50.880Z,23.50
2023-04-08T11:35:17.672Z,23.50
2023-04-08T11:37:44.877Z,26.00
2023-04-08T11:40:12.621Z,30.87
2023-04-08T11:42:39.828Z,23.23
2023-04-08T11:45:13.967Z,32.27
2023-04-08T11:47:41.127Z,25.10
2023-04-08T11:50:08.324Z,23.33
2023-04-08T11:52:49.277Z,26.27
2023-04-08T11:55:42.176Z,32.43
2023-04-08T11:58:09.082Z,25.33
2023-04-08T12:00:37.463Z,26.47
2023-04-08T12:03:04.492Z,25.03
2023-04-08T12:05:31.228Z,28.73
2023-04-08T12:07:58.021Z,24.57
2023-04-08T12:10:27.078Z,33.37
2023-04-08T12:12:53.632Z,25.13
2023-04-08T12:15:20.160Z,34.33
2023-04-08T12:17:47.031Z,34.80
2023-04-08T12:20:13.696Z,28.87
2023-04-08T12:22:40.531Z,26.40
2023-04-08T12:25:07.453Z,23.33
2023-04-08T12:27:34.054Z,21.67
2023-04-08T12:30:01.092Z,20.47
2023-04-08T12:32:28.126Z,26.07
2023-04-08T12:34:54.760Z,25.10
2023-04-08T12:37:21.356Z,21.73
2023-04-08T12:39:48.166Z,18.37
2023-04-08T12:42:14.935Z,25.10
2023-04-08T12:44:41.541Z,25.63
2023-04-08T12:47:08.352Z,20.73
2023-04-08T12:49:46.597Z,22.33
2023-04-08T12:52:16.197Z,27.33
2023-04-08T12:54:42.775Z,26.67
2023-04-08T12:57:09.336Z,19.00
2023-04-08T12:59:39.957Z,20.13
2023-04-08T13:02:08.289Z,21.40
2023-04-08T13:04:35.071Z,23.27
2023-04-08T13:07:01.666Z,18.57
2023-04-08T13:09:30.923Z,25.93
2023-04-08T13:11:58.303Z,21.87
2023-04-08T13:14:25.183Z,19.53
2023-04-08T13:16:52.153Z,23.97
2023-04-08T13:19:18.963Z,22.70
2023-04-08T13:21:46.419Z,24.30
2023-04-08T13:24:13.056Z,24.23
2023-04-08T13:26:39.838Z,24.10
2023-04-08T13:29:06.883Z,19.00
2023-04-08T13:31:33.426Z,29.53
2023-04-08T13:34:00.049Z,24.30
2023-04-08T13:36:28.713Z,23.27
2023-04-08T13:38:55.718Z,23.40
2023-04-08T13:41:22.665Z,17.13
2023-04-08T13:43:50.646Z,25.30
2023-04-08T13:46:18.169Z,40.37
2023-04-08T13:48:44.862Z,30.40
2023-04-08T13:51:11.475Z,29.87
2023-04-08T13:53:38.026Z,25.90
2023-04-08T13:56:04.840Z,24.33
2023-04-08T13:58:31.524Z,24.40
2023-04-08T14:00:58.267Z,21.97
2023-04-08T14:03:27.467Z,22.20
2023-04-08T14:05:54.261Z,21.80
2023-04-08T14:08:25.405Z,16.83
2023-04-08T14:10:53.060Z,20.53
2023-04-08T14:13:19.693Z,18.23
2023-04-08T14:15:46.972Z,17.40
2023-04-08T14:18:13.928Z,23.93
2023-04-08T14:20:41.415Z,24.17
2023-04-08T14:23:07.993Z,24.17
2023-04-08T14:25:34.908Z,30.03
2023-04-08T14:28:01.560Z,31.40
2023-04-08T14:30:28.888Z,48.90
2023-04-08T14:32:55.694Z,60.27
2023-04-08T14:35:22.404Z,27.57
2023-04-08T14:37:50.088Z,41.67
2023-04-08T14:40:16.766Z,42.00
2023-04-08T14:42:45.492Z,67.97
2023-04-08T14:45:12.111Z,118.23
2023-04-08T14:47:39.014Z,26.43
2023-04-08T14:50:06.274Z,22.97
2023-04-08T14:52:33.047Z,24.53
2023-04-08T14:54:59.616Z,20.70
2023-04-08T14:57:26.535Z,50.80
2023-04-08T14:59:53.616Z,28.13
2023-04-08T15:02:20.445Z,26.10
2023-04-08T15:04:47.222Z,101.00
2023-04-08T15:07:13.843Z,160.57
2023-04-08T15:09:40.640Z,97.00
2023-04-08T15:12:07.402Z,27.17
2023-04-08T15:14:34.044Z,67.80
2023-04-08T15:17:00.722Z,29.03
2023-04-08T15:19:27.271Z,46.13
2023-04-08T15:21:54.126Z,25.37
2023-04-08T15:24:21.065Z,52.93
2023-04-08T15:26:47.635Z,34.63
2023-04-08T15:29:14.147Z,43.23
2023-04-08T15:31:43.494Z,36.87
2023-04-08T15:34:10.046Z,30.40
2023-04-08T15:36:37.574Z,39.47
2023-04-08T15:39:04.356Z,42.67
2023-04-08T15:41:32.461Z,29.93
2023-04-08T15:43:59.086Z,26.07
2023-04-08T15:46:25.624Z,34.70
2023-04-08T15:48:52.333Z,33.63
2023-04-08T15:51:20.318Z,48.33
2023-04-08T15:53:47.180Z,26.23
2023-04-08T15:56:18.083Z,28.20
2023-04-08T15:58:45.783Z,33.03
2023-04-08T16:01:12.706Z,36.00
2023-04-08T16:03:39.550Z,38.70
2023-04-08T16:06:06.568Z,25.63
2023-04-08T16:08:34.791Z,90.80
2023-04-08T16:11:03.376Z,110.10
2023-04-08T16:13:30.211Z,49.63
2023-04-08T16:16:03.434Z,40.73
2023-04-08T16:18:30.895Z,62.00
2023-04-08T16:20:57.449Z,53.93
2023-04-08T16:23:24.265Z,32.83
2023-04-08T16:25:50.859Z,44.77
2023-04-08T16:28:18.136Z,34.67
2023-04-08T16:30:44.740Z,42.50
2023-04-08T16:33:11.488Z,38.10
2023-04-08T16:35:38.655Z,30.00
2023-04-08T16:38:06.188Z,32.90
2023-04-08T16:40:33.603Z,38.97
2023-04-08T16:43:01.044Z,28.70
2023-04-08T16:45:31.205Z,22.53
2023-04-08T16:47:58.011Z,26.53
2023-04-08T16:50:24.791Z,24.50
2023-04-08T16:52:51.651Z,21.57
2023-04-08T16:55:19.382Z,24.40
2023-04-08T16:57:46.345Z,21.90
2023-04-08T17:00:13.692Z,24.50
2023-04-08T17:02:40.508Z,32.97
2023-04-08T17:05:07.795Z,19.00
2023-04-08T17:07:34.622Z,19.70
2023-04-08T17:10:01.216Z,19.33
2023-04-08T17:12:27.790Z,23.17
2023-04-08T17:14:54.377Z,23.20
2023-04-08T17:17:21.218Z,23.77
2023-04-08T17:19:48.017Z,28.37
2023-04-08T17:22:14.581Z,21.60
2023-04-08T17:24:41.128Z,23.10
2023-04-08T17:27:07.695Z,25.67
2023-04-08T17:29:34.391Z,36.63
2023-04-08T17:32:01.425Z,22.60
2023-04-08T17:34:29.379Z,25.73
2023-04-08T17:36:56.814Z,21.27
2023-04-08T17:39:23.349Z,24.10
2023-04-08T17:41:49.874Z,30.93
2023-04-08T17:44:17.246Z,21.90
2023-04-08T17:46:44.029Z,28.00
2023-04-08T17:49:14.291Z,22.23
2023-04-08T17:51:40.967Z,22.13
2023-04-08T17:54:07.552Z,19.37
2023-04-08T17:56:34.027Z,16.30
2023-04-08T17:59:00.788Z,25.10
2023-04-08T18:01:27.759Z,18.83
2023-04-08T18:03:54.628Z,21.30
2023-04-08T18:06:21.484Z,25.27
2023-04-08T18:08:48.102Z,22.37
2023-04-08T18:11:14.689Z,20.40
2023-04-08T18:13:41.297Z,19.10
2023-04-08T18:16:16.609Z,17.73
2023-04-08T18:18:43.346Z,19.40
2023-04-08T18:21:09.914Z,14.87
2023-04-08T18:23:37.674Z,16.43
2023-04-08T18:26:04.220Z,15.10
2023-04-08T18:28:31.517Z,18.37
2023-04-08T18:30:58.158Z,15.43
2023-04-08T18:33:25.779Z,16.27
2023-04-08T18:35:52.890Z,19.97
2023-04-08T18:38:19.495Z,18.83
2023-04-08T18:40:46.174Z,18.57
2023-04-08T18:43:13.812Z,16.57
2023-04-08T18:45:41.350Z,26.23
2023-04-08T18:48:08.450Z,21.60
2023-04-08T18:50:35.071Z,21.73
2023-04-08T18:53:01.777Z,16.97
2023-04-08T18:55:28.545Z,17.93
2023-04-08T18:57:55.372Z,18.80
2023-04-08T19:00:21.906Z,19.10
2023-04-08T19:02:48.546Z,21.00
2023-04-08T19:05:15.654Z,20.27
2023-04-08T19:07:42.290Z,26.80
2023-04-08T19:10:08.935Z,17.70
2023-04-08T19:12:35.652Z,17.87
2023-04-08T19:15:04.195Z,17.60
2023-04-08T19:17:31.292Z,17.93
2023-04-08T19:19:58.923Z,18.27
2023-04-08T19:22:25.476Z,21.03
2023-04-08T19:24:54.426Z,26.37
2023-04-08T19:27:21.653Z,28.43
2023-04-08T19:29:48.372Z,36.50
2023-04-08T19:32:15.431Z,26.23
2023-04-08T19:34:42.484Z,44.97
2023-04-08T19:37:09.182Z,34.90
2023-04-08T19:39:35.800Z,25.20
2023-04-08T19:42:02.425Z,21.07
2023-04-08T19:44:28.969Z,24.50
2023-04-08T19:46:57.804Z,26.90
2023-04-08T19:49:24.956Z,26.93
2023-04-08T19:51:51.893Z,29.10
2023-04-08T19:54:18.556Z,28.00
2023-04-08T19:56:45.585Z,37.53
2023-04-08T19:59:12.548Z,31.13
2023-04-08T20:01:40.390Z,22.13
2023-04-08T20:04:07.199Z,24.13
2023-04-08T20:06:34.832Z,25.10
2023-04-08T20:09:05.601Z,24.20
2023-04-08T20:11:33.236Z,25.13
2023-04-08T20:13:59.908Z,20.20
2023-04-08T20:16:26.910Z,23.07
2023-04-08T20:18:53.523Z,25.87
2023-04-08T20:21:20.049Z,24.57
2023-04-08T20:23:46.655Z,29.70
2023-04-08T20:26:13.639Z,21.53
2023-04-08T20:28:40.990Z,22.07
2023-04-08T20:31:07.863Z,18.70
2023-04-08T20:33:34.764Z,26.47
2023-04-08T20:36:01.535Z,24.47
2023-04-08T20:38:28.442Z,25.47
2023-04-08T20:40:55.035Z,27.27
2023-04-08T20:43:21.498Z,25.83
2023-04-08T20:45:48.242Z,29.90
2023-04-08T20:48:14.848Z,28.70
2023-04-08T20:50:41.480Z,29.93
2023-04-08T20:53:08.542Z,37.30
2023-04-08T20:55:35.440Z,27.40
2023-04-08T20:58:05.704Z,26.67
2023-04-08T21:00:32.346Z,30.57
2023-04-08T21:02:59.698Z,36.73
2023-04-08T21:05:26.602Z,32.27
2023-04-08T21:07:53.131Z,27.50
2023-04-08T21:10:19.669Z,25.73
2023-04-08T21:12:46.297Z,34.30
2023-04-08T21:15:12.850Z,25.63
2023-04-08T21:17:39.460Z,23.77
2023-04-08T21:20:06.676Z,27.20
2023-04-08T21:22:33.159Z,27.17
2023-04-08T21:24:59.723Z,23.17
2023-04-08T21:27:26.270Z,29.07
2023-04-08T21:29:53.066Z,19.80
2023-04-08T21:32:19.814Z,23.83
2023-04-08T21:34:46.456Z,27.50
2023-04-08T21:37:13.026Z,22.80
2023-04-08T21:39:39.604Z,26.60
2023-04-08T21:42:06.512Z,24.37
2023-04-08T21:44:33.313Z,29.47
2023-04-08T21:47:01.656Z,28.47
2023-04-08T21:49:29.822Z,21.93
2023-04-08T21:51:56.369Z,22.73
2023-04-08T21:54:23.054Z,27.10
2023-04-08T21:56:49.551Z,25.63
2023-04-08T21:59:16.258Z,22.33
2023-04-08T22:01:42.837Z,26.80
2023-04-08T22:04:09.622Z,22.87
2023-04-08T22:06:36.426Z,20.17
2023-04-08T22:09:03.706Z,18.83
2023-04-08T22:11:30.786Z,20.23
2023-04-08T22:13:57.352Z,24.80
2023-04-08T22:16:23.975Z,24.43
2023-04-08T22:18:51.473Z,35.37
2023-04-08T22:21:18.289Z,22.53
2023-04-08T22:23:45.510Z,20.53
2023-04-08T22:26:13.015Z,38.73
2023-04-08T22:28:40.052Z,19.60
2023-04-08T22:31:10.541Z,18.93
2023-04-08T22:33:37.512Z,18.37
2023-04-08T22:36:04.833Z,22.30
2023-04-08T22:38:31.880Z,23.00
2023-04-08T22:40:58.509Z,28.17
2023-04-08T22:43:25.035Z,16.83
2023-04-08T22:45:51.654Z,17.50
2023-04-08T22:48:18.293Z,19.23
2023-04-08T22:50:44.868Z,17.13
2023-04-08T22:53:11.886Z,20.47
2023-04-08T22:55:38.436Z,27.30
2023-04-08T22:58:05.088Z,17.23
2023-04-08T23:00:31.572Z,18.10
2023-04-08T23:02:58.163Z,21.23
2023-04-08T23:05:24.873Z,12.90
2023-04-08T23:07:51.418Z,18.93
2023-04-08T23:10:17.992Z,21.80
2023-04-08T23:12:44.669Z,24.70
2023-04-08T23:15:11.258Z,14.57
2023-04-08T23:17:37.844Z,15.60
2023-04-08T23:20:04.758Z,16.97
2023-04-08T23:22:31.242Z,20.23
2023-04-08T23:24:57.912Z,21.77
2023-04-08T23:27:24.457Z,16.83
2023-04-08T23:29:51.065Z,15.00
2023-04-08T23:32:17.804Z,18.60
2023-04-08T23:34:44.374Z,16.57
2023-04-08T23:37:11.000Z,16.03
2023-04-08T23:39:37.555Z,18.60
2023-04-08T23:42:04.145Z,15.53
2023-04-08T23:44:30.836Z,14.43
2023-04-08T23:46:57.384Z,16.67
2023-04-08T23:49:23.966Z,15.70
2023-04-08T23:51:50.451Z,19.03
2023-04-08T23:54:17.184Z,11.83
2023-04-08T23:56:43.824Z,14.57
2023-04-08T23:59:10.283Z,18.97
